createdAt,value
2022-11-24T00:03:11.679Z,99513.19
2022-11-24T00:08:13.711Z,99510.56
2022-11-24T00:13:14.464Z,99514.72
2022-11-24T00:18:16.579Z,99508.72
2022-11-24T00:23:17.395Z,99522.34
2022-11-24T00:28:18.170Z,99512.94
2022-11-24T00:33:20.365Z,99522.31
2022-11-24T00:38:21.187Z,99535.13
2022-11-24T00:43:22.037Z,99526.56
2022-11-24T00:48:24.305Z,99527.38
2022-11-24T00:53:25.342Z,99537.63
2022-11-24T00:58:26.733Z,99544.44
2022-11-24T01:03:28.970Z,99542.69
2022-11-24T01:08:29.715Z,99541.81
2022-11-24T01:13:30.487Z,99550.34
2022-11-24T01:18:32.631Z,99559.69
2022-11-24T01:23:33.797Z,99560.50
2022-11-24T01:28:34.815Z,99557.88
2022-11-24T01:33:37.959Z,99582.59
2022-11-24T01:38:38.792Z,99585.09
2022-11-24T01:43:39.687Z,99591.84
2022-11-24T01:48:47.068Z,99590.13
2022-11-24T01:53:53.080Z,99591.00
2022-11-24T01:58:57.413Z,99589.28
2022-11-24T02:04:01.690Z,99590.09
2022-11-24T02:09:07.967Z,99591.72
2022-11-24T02:14:12.448Z,99603.63
2022-11-24T02:19:21.451Z,99604.47
2022-11-24T02:24:26.368Z,99595.00
2022-11-24T02:29:28.583Z,99607.00
2022-11-24T02:34:29.424Z,99612.13
2022-11-24T02:39:30.452Z,99603.59
2022-11-24T02:44:37.115Z,99616.38
2022-11-24T02:49:38.334Z,99621.41
2022-11-24T02:54:39.097Z,99617.97
2022-11-24T02:59:41.307Z,99625.66
2022-11-24T03:04:42.074Z,99627.38
2022-11-24T03:09:43.587Z,99624.88
2022-11-24T03:14:45.746Z,99626.59
2022-11-24T03:19:46.515Z,99631.75
2022-11-24T03:24:47.295Z,99630.88
2022-11-24T03:29:49.416Z,99636.00
2022-11-24T03:34:50.273Z,99641.09
2022-11-24T03:39:51.185Z,99648.78
2022-11-24T03:44:53.337Z,99643.59
2022-11-24T03:49:55.141Z,99647.00
2022-11-24T03:54:55.956Z,99652.09
2022-11-24T03:59:58.918Z,99651.19
2022-11-24T04:05:00.162Z,99660.50
2022-11-24T04:10:00.948Z,99658.03
2022-11-24T04:15:03.088Z,99663.13
2022-11-24T04:20:04.329Z,99665.69
2022-11-24T04:25:06.765Z,99665.75
2022-11-24T04:30:10.164Z,99664.88
2022-11-24T04:35:11.498Z,99681.13
2022-11-24T04:40:14.062Z,99688.81
2022-11-24T04:45:16.254Z,99697.31
2022-11-24T04:50:17.726Z,99703.38
2022-11-24T04:55:18.730Z,99700.88
2022-11-24T05:00:21.616Z,99710.38
2022-11-24T05:05:22.377Z,99719.88
2022-11-24T05:10:38.630Z,99718.16
2022-11-24T05:15:42.181Z,99719.13
2022-11-24T05:20:44.646Z,99725.09
2022-11-24T05:25:47.737Z,99742.31
2022-11-24T05:30:50.237Z,99739.81
2022-11-24T05:35:51.375Z,99746.81
2022-11-24T05:40:52.163Z,99753.63
2022-11-24T05:45:54.675Z,99752.84
2022-11-24T05:50:56.639Z,99753.63
2022-11-24T05:55:57.421Z,99771.56
2022-11-24T06:00:59.549Z,99768.13
2022-11-24T06:06:00.382Z,99781.03
2022-11-24T06:11:17.155Z,99786.25
2022-11-24T06:16:19.467Z,99794.81
2022-11-24T06:21:20.277Z,99803.47
2022-11-24T06:26:21.376Z,99806.09
2022-11-24T06:31:23.843Z,99808.78
2022-11-24T06:36:25.555Z,99819.09
2022-11-24T06:41:26.319Z,99814.09
2022-11-24T06:46:28.437Z,99825.44
2022-11-24T06:51:29.228Z,99828.09
2022-11-24T06:56:29.991Z,99833.28
2022-11-24T07:01:32.360Z,99837.53
2022-11-24T07:06:33.141Z,99842.75
2022-11-24T07:11:35.387Z,99841.91
2022-11-24T07:16:37.963Z,99857.38
2022-11-24T07:21:38.754Z,99849.72
2022-11-24T07:26:40.136Z,99856.59
2022-11-24T07:31:42.548Z,99858.41
2022-11-24T07:36:45.113Z,99862.69
2022-11-24T07:41:45.933Z,99860.22
2022-11-24T07:46:50.048Z,99875.59
2022-11-24T07:51:50.929Z,99882.56
2022-11-24T07:56:51.726Z,99874.13
2022-11-24T08:01:53.951Z,99874.19
2022-11-24T08:06:54.887Z,99873.44
2022-11-24T08:11:55.689Z,99874.41
2022-11-24T08:16:58.953Z,99877.06
2022-11-24T08:21:59.819Z,99875.38
2022-11-24T08:27:00.905Z,99877.28
2022-11-24T08:32:03.109Z,99878.19
2022-11-24T08:37:05.136Z,99877.34
2022-11-24T08:42:06.706Z,99878.25
2022-11-24T08:47:08.850Z,99887.75
2022-11-24T08:52:09.712Z,99894.69
2022-11-24T08:57:10.476Z,99893.81
2022-11-24T09:02:14.483Z,99893.84
2022-11-24T09:07:15.321Z,99887.84
2022-11-24T09:12:16.292Z,99894.72
2022-11-24T09:17:18.449Z,99898.16
2022-11-24T09:22:19.996Z,99903.34
2022-11-24T09:27:20.789Z,99911.03
2022-11-24T09:32:22.994Z,99905.84
2022-11-24T09:37:28.132Z,99908.47
2022-11-24T09:42:41.104Z,99899.06
2022-11-24T09:47:54.298Z,99894.78
2022-11-24T09:53:01.986Z,99909.41
2022-11-24T09:58:35.076Z,99905.13
2022-11-24T10:03:43.469Z,99912.84
2022-11-24T10:09:04.424Z,99913.72
2022-11-24T10:14:40.859Z,99914.59
2022-11-24T10:19:50.972Z,99911.13
2022-11-24T10:25:09.095Z,99912.88
2022-11-24T10:30:16.254Z,99905.97
2022-11-24T10:35:22.483Z,99899.94
2022-11-24T10:40:56.086Z,99906.81
2022-11-24T10:45:53.857Z,99902.50
2022-11-24T10:51:09.352Z,99905.97
2022-11-24T10:56:10.181Z,99900.81
2022-11-24T11:01:22.363Z,99904.25
2022-11-24T11:06:27.337Z,99904.19
2022-11-24T11:11:30.330Z,99910.22
2022-11-24T11:16:37.829Z,99908.50
2022-11-24T11:21:40.637Z,99909.31
2022-11-24T11:26:42.592Z,99905.81
2022-11-24T11:34:02.866Z,99912.47
2022-11-24T11:37:13.315Z,99896.84
2022-11-24T11:42:45.146Z,99897.75
2022-11-24T11:47:45.755Z,99901.16
2022-11-24T11:53:04.151Z,99916.72
2022-11-24T11:58:25.035Z,99906.34
2022-11-24T12:03:44.563Z,99918.47
2022-11-24T12:14:32.093Z,99922.72
2022-11-24T12:19:50.636Z,99921.09
2022-11-24T12:25:00.220Z,99922.69
2022-11-24T12:30:10.738Z,99925.28
2022-11-24T12:35:20.593Z,99925.22
2022-11-24T12:40:33.656Z,99925.19
2022-11-24T12:45:41.314Z,99926.03
2022-11-24T12:50:45.021Z,99929.53
2022-11-24T12:55:48.078Z,99934.66
2022-11-24T13:01:01.154Z,99939.81
2022-11-24T13:06:08.574Z,99935.47
2022-11-24T13:11:41.897Z,99939.69
2022-11-24T13:17:21.776Z,99946.50
2022-11-24T13:22:19.147Z,99948.19
2022-11-24T13:27:39.910Z,99951.56
2022-11-24T13:32:59.907Z,99948.94
2022-11-24T13:38:00.724Z,99953.28
2022-11-24T13:43:22.612Z,99955.91
2022-11-24T13:49:01.014Z,99963.63
2022-11-24T13:54:02.905Z,99970.50
2022-11-24T13:59:18.742Z,99971.44
2022-11-24T14:04:30.946Z,99969.84
2022-11-24T14:09:38.002Z,99981.22
2022-11-24T14:14:40.567Z,99986.41
2022-11-24T14:19:41.782Z,99996.69
2022-11-24T14:24:45.259Z,99999.28
2022-11-24T14:35:25.365Z,100007.97
2022-11-24T14:40:42.843Z,100013.09
2022-11-24T14:45:53.081Z,100013.13
2022-11-24T14:51:05.238Z,100024.31
2022-11-24T14:56:23.168Z,100032.94
2022-11-24T15:01:32.659Z,100033.00
2022-11-24T15:06:35.305Z,100043.34
2022-11-24T15:11:36.418Z,100053.66
2022-11-24T15:16:41.076Z,100054.31
2022-11-24T15:21:43.261Z,100048.25
2022-11-24T15:26:44.976Z,100057.47
2022-11-24T15:31:51.037Z,100062.50
2022-11-24T15:36:55.029Z,100069.81
2022-11-24T15:41:56.067Z,100077.72
2022-11-24T15:46:57.084Z,100088.94
2022-11-24T15:51:59.313Z,100088.94
2022-11-24T15:57:00.666Z,100088.97
2022-11-24T16:02:01.598Z,100092.44
2022-11-24T16:07:06.265Z,100089.88
2022-11-24T16:12:08.227Z,100095.06
2022-11-24T16:17:09.089Z,100093.38
2022-11-24T16:22:11.823Z,100108.03
2022-11-24T16:27:13.831Z,100114.97
2022-11-24T16:32:14.654Z,100125.28
2022-11-24T16:37:18.315Z,100130.44
2022-11-24T16:42:19.082Z,100130.44
2022-11-24T16:47:20.209Z,100134.75
2022-11-24T16:52:22.391Z,100140.78
2022-11-24T16:57:23.206Z,100137.34
2022-11-24T17:02:24.109Z,100141.66
2022-11-24T17:07:26.577Z,100147.66
2022-11-24T17:12:27.404Z,100148.53
2022-11-24T17:17:29.202Z,100151.97
2022-11-24T17:22:31.375Z,100149.38
2022-11-24T17:27:32.403Z,100156.28
2022-11-24T17:32:33.623Z,100166.63
2022-11-24T17:37:37.038Z,100170.06
2022-11-24T17:42:37.957Z,100166.63
2022-11-24T17:47:38.815Z,100173.50
2022-11-24T17:52:40.964Z,100178.69
2022-11-24T17:57:41.773Z,100182.06
2022-11-24T18:02:42.633Z,100182.94
2022-11-24T18:07:44.964Z,100184.69
2022-11-24T18:12:45.827Z,100195.91
2022-11-24T18:17:46.643Z,100190.72
2022-11-24T18:23:05.841Z,100201.03
2022-11-24T18:28:07.025Z,100201.03
2022-11-24T18:33:07.917Z,100211.38
2022-11-24T18:38:10.483Z,100205.34
2022-11-24T18:43:11.268Z,100213.97
2022-11-24T18:48:12.057Z,100213.09
2022-11-24T18:53:14.211Z,100217.41
2022-11-24T18:58:15.071Z,100214.81
2022-11-24T19:03:15.881Z,100220.00
2022-11-24T19:08:18.019Z,100219.13
2022-11-24T19:13:18.841Z,100217.38
2022-11-24T19:18:19.908Z,100223.41
2022-11-24T19:23:22.371Z,100223.44
2022-11-24T19:28:23.230Z,100228.59
2022-11-24T19:33:24.208Z,100231.19
2022-11-24T19:38:29.924Z,100234.63
2022-11-24T19:43:32.017Z,100233.75
2022-11-24T19:48:33.991Z,100237.22
2022-11-24T19:53:36.541Z,100242.38
2022-11-24T19:58:38.170Z,100241.53
2022-11-24T20:03:40.059Z,100246.69
2022-11-24T20:08:42.973Z,100244.97
2022-11-24T20:13:45.497Z,100260.47
2022-11-24T20:18:48.306Z,100255.31
2022-11-24T20:23:55.892Z,100262.19
2022-11-24T20:28:59.369Z,100269.06
2022-11-24T20:34:01.126Z,100279.41
2022-11-24T20:39:06.025Z,100281.13
2022-11-24T20:44:10.483Z,100281.13
2022-11-24T20:49:15.531Z,100282.00
2022-11-24T20:54:19.391Z,100289.75
2022-11-24T20:59:22.390Z,100297.47
2022-11-24T21:04:25.516Z,100288.84
2022-11-24T21:09:28.223Z,100297.47
2022-11-24T21:14:32.513Z,100302.63
2022-11-24T21:19:36.040Z,100312.09
2022-11-24T21:24:38.189Z,100306.97
2022-11-24T21:29:38.975Z,100314.69
2022-11-24T21:34:39.824Z,100311.28
2022-11-24T21:39:44.627Z,100308.69
2022-11-24T21:44:45.555Z,100310.44
2022-11-24T21:49:46.370Z,100322.47
2022-11-24T21:54:48.509Z,100325.06
2022-11-24T21:59:50.433Z,100332.78
2022-11-24T22:04:51.225Z,100331.06
2022-11-24T22:09:53.360Z,100331.09
2022-11-24T22:14:54.116Z,100325.06
2022-11-24T22:19:54.897Z,100331.09
2022-11-24T22:24:57.027Z,100332.84
2022-11-24T22:29:58.070Z,100330.22
2022-11-24T22:34:58.832Z,100337.97
2022-11-24T22:40:00.999Z,100342.28
2022-11-24T22:45:01.776Z,100348.34
2022-11-24T22:50:02.551Z,100352.63
2022-11-24T22:55:05.101Z,100350.91
2022-11-24T23:00:08.332Z,100354.34
2022-11-24T23:05:09.878Z,100362.94
2022-11-24T23:10:12.996Z,100362.97
2022-11-24T23:15:13.767Z,100369.81
2022-11-24T23:20:15.547Z,100364.63
2022-11-24T23:25:17.885Z,100362.00
2022-11-24T23:30:18.886Z,100369.75
2022-11-24T23:35:19.936Z,100366.22
2022-11-24T23:40:22.038Z,100374.78
2022-11-24T23:45:23.144Z,100373.91
2022-11-24T23:50:23.894Z,100371.31
2022-11-24T23:55:26.085Z,100374.72
